sensor_id;sensor_type;location;lat;lon;timestamp;pressure;altitude;pressure_sealevel;temperature;humidity
58092;BME280;43896;48.178;11.578;2023-01-27T00:00:12;95867.75;;;1.47;69.55
58092;BME280;43896;48.178;11.578;2023-01-27T00:02:39;95873.06;;;1.46;70.44
58092;BME280;43896;48.178;11.578;2023-01-27T00:05:06;95868.09;;;1.43;70.70
58092;BME280;43896;48.178;11.578;2023-01-27T00:07:32;95906.06;;;1.69;70.45
58092;BME280;43896;48.178;11.578;2023-01-27T00:09:57;95866.94;;;1.47;70.21
58092;BME280;43896;48.178;11.578;2023-01-27T00:12:26;95878.25;;;1.59;70.57
58092;BME280;43896;48.178;11.578;2023-01-27T00:15:12;95890.22;;;1.74;70.53
58092;BME280;43896;48.178;11.578;2023-01-27T00:17:38;95882.41;;;1.61;71.10
58092;BME280;43896;48.178;11.578;2023-01-27T00:20:04;95894.97;;;1.80;71.51
58092;BME280;43896;48.178;11.578;2023-01-27T00:22:30;95860.94;;;1.46;71.04
58092;BME280;43896;48.178;11.578;2023-01-27T00:25:14;95838.59;;;1.05;72.19
58092;BME280;43896;48.178;11.578;2023-01-27T00:27:40;95853.03;;;1.22;71.95
58092;BME280;43896;48.178;11.578;2023-01-27T00:30:06;95847.44;;;0.88;72.92
58092;BME280;43896;48.178;11.578;2023-01-27T00:32:31;95869.69;;;0.91;73.99
58092;BME280;43896;48.178;11.578;2023-01-27T00:35:16;95873.03;;;1.33;72.40
58092;BME280;43896;48.178;11.578;2023-01-27T00:37:42;95892.97;;;1.45;71.30
58092;BME280;43896;48.178;11.578;2023-01-27T00:40:09;95868.38;;;1.38;71.52
58092;BME280;43896;48.178;11.578;2023-01-27T00:42:35;95886.25;;;1.56;70.40
58092;BME280;43896;48.178;11.578;2023-01-27T00:45:00;95885.09;;;1.47;71.40
58092;BME280;43896;48.178;11.578;2023-01-27T00:47:46;95882.19;;;1.52;71.01
58092;BME280;43896;48.178;11.578;2023-01-27T00:50:12;95870.00;;;1.14;71.58
58092;BME280;43896;48.178;11.578;2023-01-27T00:52:38;95824.47;;;0.97;71.79
58092;BME280;43896;48.178;11.578;2023-01-27T00:55:04;95870.34;;;1.35;71.21
58092;BME280;43896;48.178;11.578;2023-01-27T00:57:29;95886.28;;;1.28;71.23
58092;BME280;43896;48.178;11.578;2023-01-27T00:59:55;95827.69;;;1.00;70.91
58092;BME280;43896;48.178;11.578;2023-01-27T01:02:20;95838.47;;;1.07;71.04
58092;BME280;43896;48.178;11.578;2023-01-27T01:04:45;95880.72;;;1.35;71.05
58092;BME280;43896;48.178;11.578;2023-01-27T01:07:10;95883.75;;;1.41;70.78
58092;BME280;43896;48.178;11.578;2023-01-27T01:09:36;95880.91;;;1.19;71.91
58092;BME280;43896;48.178;11.578;2023-01-27T01:12:01;95893.00;;;1.18;72.26
58092;BME280;43896;48.178;11.578;2023-01-27T01:14:26;95872.19;;;1.20;71.85
58092;BME280;43896;48.178;11.578;2023-01-27T01:16:52;95907.97;;;1.40;71.69
58092;BME280;43896;48.178;11.578;2023-01-27T01:19:17;95911.81;;;1.47;71.07
58092;BME280;43896;48.178;11.578;2023-01-27T01:21:42;95917.78;;;1.62;71.05
58092;BME280;43896;48.178;11.578;2023-01-27T01:24:08;95898.81;;;1.62;70.55
58092;BME280;43896;48.178;11.578;2023-01-27T01:26:33;95889.75;;;1.42;70.56
58092;BME280;43896;48.178;11.578;2023-01-27T01:28:58;95882.19;;;1.11;71.62
58092;BME280;43896;48.178;11.578;2023-01-27T01:31:24;95910.13;;;1.21;71.63
58092;BME280;43896;48.178;11.578;2023-01-27T01:33:49;95869.91;;;1.28;71.31
58092;BME280;43896;48.178;11.578;2023-01-27T01:36:19;95910.19;;;1.59;70.21
58092;BME280;43896;48.178;11.578;2023-01-27T01:38:45;95904.41;;;1.68;70.47
58092;BME280;43896;48.178;11.578;2023-01-27T01:41:16;95908.31;;;1.61;70.43
58092;BME280;43896;48.178;11.578;2023-01-27T01:43:42;95822.50;;;1.00;70.85
58092;BME280;43896;48.178;11.578;2023-01-27T01:46:09;95861.44;;;1.26;70.50
58092;BME280;43896;48.178;11.578;2023-01-27T01:51:16;95868.88;;;1.30;71.33
58092;BME280;43896;48.178;11.578;2023-01-27T01:57:04;95848.91;;;1.45;70.85
58092;BME280;43896;48.178;11.578;2023-01-27T01:59:56;95876.66;;;1.30;72.39
58092;BME280;43896;48.178;11.578;2023-01-27T02:02:23;95865.00;;;1.10;72.30
58092;BME280;43896;48.178;11.578;2023-01-27T02:04:53;95879.09;;;1.46;71.55
58092;BME280;43896;48.178;11.578;2023-01-27T02:07:25;95891.91;;;1.35;71.50
58092;BME280;43896;48.178;11.578;2023-01-27T02:09:54;95859.22;;;0.80;73.16
58092;BME280;43896;48.178;11.578;2023-01-27T02:12:20;95878.59;;;1.27;71.79
58092;BME280;43896;48.178;11.578;2023-01-27T02:14:45;95891.25;;;1.19;72.15
58092;BME280;43896;48.178;11.578;2023-01-27T02:17:12;95879.00;;;1.48;71.23
58092;BME280;43896;48.178;11.578;2023-01-27T02:23:10;95884.66;;;1.00;72.76
58092;BME280;43896;48.178;11.578;2023-01-27T02:25:56;95879.66;;;1.24;72.32
58092;BME280;43896;48.178;11.578;2023-01-27T02:28:26;95847.03;;;0.94;72.48
58092;BME280;43896;48.178;11.578;2023-01-27T02:30:51;95883.75;;;1.41;72.10
58092;BME280;43896;48.178;11.578;2023-01-27T02:33:17;95870.88;;;1.40;71.04
58092;BME280;43896;48.178;11.578;2023-01-27T02:38:32;95895.91;;;0.86;72.78
58092;BME280;43896;48.178;11.578;2023-01-27T02:41:14;95849.72;;;0.66;73.59
58092;BME280;43896;48.178;11.578;2023-01-27T02:43:43;95853.59;;;1.00;72.52
58092;BME280;43896;48.178;11.578;2023-01-27T02:46:08;95853.59;;;1.00;72.30
58092;BME280;43896;48.178;11.578;2023-01-27T02:48:34;95874.91;;;1.31;71.59
58092;BME280;43896;48.178;11.578;2023-01-27T02:50:59;95883.13;;;1.10;72.33
58092;BME280;43896;48.178;11.578;2023-01-27T02:53:24;95862.47;;;0.96;72.80
58092;BME280;43896;48.178;11.578;2023-01-27T02:55:50;95868.16;;;0.88;73.95
58092;BME280;43896;48.178;11.578;2023-01-27T02:58:15;95862.06;;;1.02;73.32
58092;BME280;43896;48.178;11.578;2023-01-27T03:00:41;95882.69;;;1.04;72.95
58092;BME280;43896;48.178;11.578;2023-01-27T03:03:07;95870.63;;;0.90;73.40
58092;BME280;43896;48.178;11.578;2023-01-27T03:05:33;95859.09;;;1.08;72.74
58092;BME280;43896;48.178;11.578;2023-01-27T03:07:58;95859.41;;;1.04;72.99
58092;BME280;43896;48.178;11.578;2023-01-27T03:10:23;95863.41;;;0.95;73.73
58092;BME280;43896;48.178;11.578;2023-01-27T03:12:49;95885.91;;;1.07;73.58
58092;BME280;43896;48.178;11.578;2023-01-27T03:15:14;95883.78;;;1.27;72.93
58092;BME280;43896;48.178;11.578;2023-01-27T03:18:06;95879.81;;;1.08;73.06
58092;BME280;43896;48.178;11.578;2023-01-27T03:20:43;95807.63;;;0.77;72.24
58092;BME280;43896;48.178;11.578;2023-01-27T03:23:09;95875.72;;;1.31;72.73
58092;BME280;43896;48.178;11.578;2023-01-27T03:25:35;95887.13;;;1.29;72.33
58092;BME280;43896;48.178;11.578;2023-01-27T03:28:01;95888.13;;;1.14;73.38
58092;BME280;43896;48.178;11.578;2023-01-27T03:30:27;95852.19;;;0.94;72.15
58092;BME280;43896;48.178;11.578;2023-01-27T03:32:53;95871.53;;;1.03;72.45
58092;BME280;43896;48.178;11.578;2023-01-27T03:35:18;95834.31;;;0.64;73.56
58092;BME280;43896;48.178;11.578;2023-01-27T03:37:43;95836.91;;;0.77;73.18
58092;BME280;43896;48.178;11.578;2023-01-27T03:40:27;95854.25;;;0.89;72.63
58092;BME280;43896;48.178;11.578;2023-01-27T03:43:11;95835.19;;;0.78;72.94
58092;BME280;43896;48.178;11.578;2023-01-27T03:45:55;95868.94;;;1.03;72.48
58092;BME280;43896;48.178;11.578;2023-01-27T03:48:39;95856.84;;;0.89;72.58
58092;BME280;43896;48.178;11.578;2023-01-27T03:51:06;95828.53;;;0.73;73.12
58092;BME280;43896;48.178;11.578;2023-01-27T03:53:33;95843.13;;;0.74;72.21
58092;BME280;43896;48.178;11.578;2023-01-27T03:55:58;95822.28;;;0.63;72.09
58092;BME280;43896;48.178;11.578;2023-01-27T03:58:26;95816.75;;;0.55;72.76
58092;BME280;43896;48.178;11.578;2023-01-27T04:00:55;95850.00;;;0.61;73.82
58092;BME280;43896;48.178;11.578;2023-01-27T04:03:22;95876.50;;;0.79;73.15
58092;BME280;43896;48.178;11.578;2023-01-27T04:06:09;95868.78;;;0.92;72.52
58092;BME280;43896;48.178;11.578;2023-01-27T04:08:53;95833.41;;;0.51;73.82
58092;BME280;43896;48.178;11.578;2023-01-27T04:11:19;95849.75;;;0.93;72.74
58092;BME280;43896;48.178;11.578;2023-01-27T04:14:05;95867.69;;;1.09;72.22
58092;BME280;43896;48.178;11.578;2023-01-27T04:16:31;95850.50;;;0.81;71.82
58092;BME280;43896;48.178;11.578;2023-01-27T04:18:57;95855.38;;;0.85;72.13
58092;BME280;43896;48.178;11.578;2023-01-27T04:21:23;95871.53;;;1.03;71.33
58092;BME280;43896;48.178;11.578;2023-01-27T04:23:50;95875.22;;;0.99;71.97
58092;BME280;43896;48.178;11.578;2023-01-27T04:26:16;95868.63;;;0.81;72.12
58092;BME280;43896;48.178;11.578;2023-01-27T04:28:41;95850.03;;;0.88;71.90
58092;BME280;43896;48.178;11.578;2023-01-27T04:31:07;95859.50;;;1.02;71.42
58092;BME280;43896;48.178;11.578;2023-01-27T04:33:32;95856.19;;;1.00;71.65
58092;BME280;43896;48.178;11.578;2023-01-27T04:35:58;95837.50;;;0.95;71.54
58092;BME280;43896;48.178;11.578;2023-01-27T04:38:23;95875.91;;;1.16;71.55
58092;BME280;43896;48.178;11.578;2023-01-27T04:40:48;95859.72;;;1.12;70.72
58092;BME280;43896;48.178;11.578;2023-01-27T04:43:14;95866.72;;;0.97;71.33
58092;BME280;43896;48.178;11.578;2023-01-27T04:45:40;95872.09;;;0.94;71.90
58092;BME280;43896;48.178;11.578;2023-01-27T04:48:05;95875.50;;;0.94;72.02
58092;BME280;43896;48.178;11.578;2023-01-27T04:50:31;95872.97;;;1.07;71.41
58092;BME280;43896;48.178;11.578;2023-01-27T04:52:57;95878.59;;;0.87;71.46
58092;BME280;43896;48.178;11.578;2023-01-27T04:55:22;95874.59;;;0.96;71.69
58092;BME280;43896;48.178;11.578;2023-01-27T04:57:47;95868.03;;;0.63;72.48
58092;BME280;43896;48.178;11.578;2023-01-27T05:00:13;95883.25;;;0.82;72.73
58092;BME280;43896;48.178;11.578;2023-01-27T05:02:39;95870.84;;;1.00;71.60
58092;BME280;43896;48.178;11.578;2023-01-27T05:05:05;95872.16;;;0.80;71.81
58092;BME280;43896;48.178;11.578;2023-01-27T05:07:30;95891.03;;;0.94;71.19
58092;BME280;43896;48.178;11.578;2023-01-27T05:09:56;95824.72;;;0.52;71.17
58092;BME280;43896;48.178;11.578;2023-01-27T05:12:21;95871.91;;;0.97;70.91
58092;BME280;43896;48.178;11.578;2023-01-27T05:14:46;95852.13;;;0.69;71.38
58092;BME280;43896;48.178;11.578;2023-01-27T05:17:11;95872.81;;;0.96;71.48
58092;BME280;43896;48.178;11.578;2023-01-27T05:19:37;95883.25;;;0.82;71.39
58092;BME280;43896;48.178;11.578;2023-01-27T05:22:02;95874.25;;;0.87;71.61
58092;BME280;43896;48.178;11.578;2023-01-27T05:24:27;95824.38;;;0.44;71.87
58092;BME280;43896;48.178;11.578;2023-01-27T05:26:53;95887.53;;;0.68;72.21
58092;BME280;43896;48.178;11.578;2023-01-27T05:29:18;95881.28;;;0.85;71.84
58092;BME280;43896;48.178;11.578;2023-01-27T05:31:43;95866.09;;;0.66;72.53
58092;BME280;43896;48.178;11.578;2023-01-27T05:34:09;95895.63;;;0.77;72.66
58092;BME280;43896;48.178;11.578;2023-01-27T05:36:34;95876.63;;;0.90;70.75
58092;BME280;43896;48.178;11.578;2023-01-27T05:39:00;95877.38;;;0.92;70.77
58092;BME280;43896;48.178;11.578;2023-01-27T05:41:28;95895.47;;;1.07;70.50
58092;BME280;43896;48.178;11.578;2023-01-27T05:43:55;95848.25;;;0.62;70.55
58092;BME280;43896;48.178;11.578;2023-01-27T05:46:23;95907.44;;;0.95;71.11
58092;BME280;43896;48.178;11.578;2023-01-27T05:48:53;95871.44;;;0.78;70.96
58092;BME280;43896;48.178;11.578;2023-01-27T05:51:21;95900.00;;;1.03;70.59
58092;BME280;43896;48.178;11.578;2023-01-27T05:53:47;95828.31;;;0.64;70.28
58092;BME280;43896;48.178;11.578;2023-01-27T05:56:15;95894.28;;;0.98;70.37
58092;BME280;43896;48.178;11.578;2023-01-27T05:58:41;95908.53;;;0.91;71.13
58092;BME280;43896;48.178;11.578;2023-01-27T06:01:18;95922.66;;;1.00;71.05
58092;BME280;43896;48.178;11.578;2023-01-27T06:03:44;95905.72;;;0.81;71.50
58092;BME280;43896;48.178;11.578;2023-01-27T06:06:10;95928.75;;;0.71;72.37
58092;BME280;43896;48.178;11.578;2023-01-27T06:08:37;95924.47;;;0.85;71.69
58092;BME280;43896;48.178;11.578;2023-01-27T06:11:03;95930.28;;;0.88;72.36
58092;BME280;43896;48.178;11.578;2023-01-27T06:13:29;95920.56;;;0.92;71.37
58092;BME280;43896;48.178;11.578;2023-01-27T06:15:54;95922.56;;;1.01;71.48
58092;BME280;43896;48.178;11.578;2023-01-27T06:18:21;95905.91;;;1.05;70.13
58092;BME280;43896;48.178;11.578;2023-01-27T06:20:46;95931.66;;;1.21;70.80
58092;BME280;43896;48.178;11.578;2023-01-27T06:23:13;95915.56;;;1.16;69.74
58092;BME280;43896;48.178;11.578;2023-01-27T06:25:47;95924.66;;;1.36;70.19
58092;BME280;43896;48.178;11.578;2023-01-27T06:28:13;95927.91;;;1.12;71.05
58092;BME280;43896;48.178;11.578;2023-01-27T06:30:39;95923.63;;;1.11;71.08
58092;BME280;43896;48.178;11.578;2023-01-27T06:33:05;95939.53;;;1.20;71.17
58092;BME280;43896;48.178;11.578;2023-01-27T06:35:32;95928.38;;;0.78;72.21
58092;BME280;43896;48.178;11.578;2023-01-27T06:37:59;95936.31;;;0.74;73.09
58092;BME280;43896;48.178;11.578;2023-01-27T06:40:25;95940.16;;;0.96;72.20
58092;BME280;43896;48.178;11.578;2023-01-27T06:42:51;95931.28;;;0.86;71.90
58092;BME280;43896;48.178;11.578;2023-01-27T06:45:16;95959.00;;;1.25;71.18
58092;BME280;43896;48.178;11.578;2023-01-27T06:47:41;95931.03;;;1.18;70.17
58092;BME280;43896;48.178;11.578;2023-01-27T06:50:09;95970.88;;;1.29;70.99
58092;BME280;43896;48.178;11.578;2023-01-27T06:52:35;95968.91;;;1.33;70.96
58092;BME280;43896;48.178;11.578;2023-01-27T06:55:01;95939.41;;;1.08;71.98
58092;BME280;43896;48.178;11.578;2023-01-27T06:57:27;95959.25;;;1.22;71.59
58092;BME280;43896;48.178;11.578;2023-01-27T06:59:53;95967.66;;;1.11;71.91
58092;BME280;43896;48.178;11.578;2023-01-27T07:02:18;95944.34;;;1.11;71.73
58092;BME280;43896;48.178;11.578;2023-01-27T07:04:43;95926.00;;;1.02;72.27
58092;BME280;43896;48.178;11.578;2023-01-27T07:07:09;95966.16;;;1.22;72.77
58092;BME280;43896;48.178;11.578;2023-01-27T07:09:34;95965.69;;;1.29;72.42
58092;BME280;43896;48.178;11.578;2023-01-27T07:11:59;95915.19;;;0.95;73.00
58092;BME280;43896;48.178;11.578;2023-01-27T07:14:25;95903.34;;;0.91;72.29
58092;BME280;43896;48.178;11.578;2023-01-27T07:16:50;95912.44;;;1.11;72.42
58092;BME280;43896;48.178;11.578;2023-01-27T07:19:15;95980.28;;;1.30;72.98
58092;BME280;43896;48.178;11.578;2023-01-27T07:21:42;95972.34;;;0.92;74.49
58092;BME280;43896;48.178;11.578;2023-01-27T07:24:07;95872.97;;;0.39;73.69
58092;BME280;43896;48.178;11.578;2023-01-27T07:26:33;95949.41;;;1.00;74.58
58092;BME280;43896;48.178;11.578;2023-01-27T07:28:58;95878.44;;;0.75;73.45
58092;BME280;43896;48.178;11.578;2023-01-27T07:31:24;95897.97;;;1.08;72.71
58092;BME280;43896;48.178;11.578;2023-01-27T07:33:49;95942.72;;;1.50;71.64
58092;BME280;43896;48.178;11.578;2023-01-27T07:36:14;95890.47;;;0.77;72.19
58092;BME280;43896;48.178;11.578;2023-01-27T07:38:40;95918.69;;;0.94;73.13
58092;BME280;43896;48.178;11.578;2023-01-27T07:41:06;95878.78;;;0.84;73.18
58092;BME280;43896;48.178;11.578;2023-01-27T07:43:32;95892.97;;;1.05;72.11
58092;BME280;43896;48.178;11.578;2023-01-27T07:45:57;95962.22;;;1.56;71.64
58092;BME280;43896;48.178;11.578;2023-01-27T07:48:23;95941.84;;;1.37;72.09
58092;BME280;43896;48.178;11.578;2023-01-27T07:50:48;95844.84;;;0.88;71.98
58092;BME280;43896;48.178;11.578;2023-01-27T07:53:14;95920.03;;;1.41;71.63
58092;BME280;43896;48.178;11.578;2023-01-27T07:55:39;95959.88;;;1.79;71.25
58092;BME280;43896;48.178;11.578;2023-01-27T07:58:05;95902.72;;;1.15;71.53
58092;BME280;43896;48.178;11.578;2023-01-27T08:00:31;95897.25;;;1.19;71.71
58092;BME280;43896;48.178;11.578;2023-01-27T08:02:57;95902.88;;;1.26;71.55
58092;BME280;43896;48.178;11.578;2023-01-27T08:05:23;95933.88;;;1.40;70.75
58092;BME280;43896;48.178;11.578;2023-01-27T08:07:50;95936.81;;;1.48;71.03
58092;BME280;43896;48.178;11.578;2023-01-27T08:10:16;95946.22;;;1.37;71.48
58092;BME280;43896;48.178;11.578;2023-01-27T08:12:43;95960.09;;;1.36;71.69
58092;BME280;43896;48.178;11.578;2023-01-27T08:15:09;95895.13;;;1.11;71.33
58092;BME280;43896;48.178;11.578;2023-01-27T08:17:34;95900.56;;;0.94;72.00
58092;BME280;43896;48.178;11.578;2023-01-27T08:19:59;95973.19;;;1.20;73.61
58092;BME280;43896;48.178;11.578;2023-01-27T08:22:27;95933.91;;;1.13;72.22
58092;BME280;43896;48.178;11.578;2023-01-27T08:24:52;95944.84;;;1.31;71.39
58092;BME280;43896;48.178;11.578;2023-01-27T08:27:18;95900.63;;;1.07;71.23
58092;BME280;43896;48.178;11.578;2023-01-27T08:29:43;95977.69;;;1.30;72.60
58092;BME280;43896;48.178;11.578;2023-01-27T08:32:09;95904.44;;;1.01;72.72
58092;BME280;43896;48.178;11.578;2023-01-27T08:34:35;95917.28;;;1.30;71.26
58092;BME280;43896;48.178;11.578;2023-01-27T08:37:01;95962.63;;;1.50;71.09
58092;BME280;43896;48.178;11.578;2023-01-27T08:39:26;95935.41;;;1.30;71.65
58092;BME280;43896;48.178;11.578;2023-01-27T08:41:52;95922.88;;;1.24;70.99
58092;BME280;43896;48.178;11.578;2023-01-27T08:44:17;95934.34;;;1.20;70.61
58092;BME280;43896;48.178;11.578;2023-01-27T08:46:43;95914.75;;;0.88;70.89
58092;BME280;43896;48.178;11.578;2023-01-27T08:49:09;95994.38;;;1.54;70.63
58092;BME280;43896;48.178;11.578;2023-01-27T08:51:34;95999.28;;;1.58;70.57
58092;BME280;43896;48.178;11.578;2023-01-27T08:54:00;96010.94;;;1.51;70.84
58092;BME280;43896;48.178;11.578;2023-01-27T08:56:25;95953.84;;;1.25;70.47
58092;BME280;43896;48.178;11.578;2023-01-27T08:58:50;95976.47;;;1.09;70.98
58092;BME280;43896;48.178;11.578;2023-01-27T09:01:17;96005.97;;;1.06;72.12
58092;BME280;43896;48.178;11.578;2023-01-27T09:03:42;95970.94;;;1.01;70.80
58092;BME280;43896;48.178;11.578;2023-01-27T09:06:10;95960.66;;;1.14;70.10
58092;BME280;43896;48.178;11.578;2023-01-27T09:08:36;95954.34;;;1.18;70.23
58092;BME280;43896;48.178;11.578;2023-01-27T09:11:13;95981.25;;;1.42;70.66
58092;BME280;43896;48.178;11.578;2023-01-27T09:13:38;96015.59;;;1.46;70.67
58092;BME280;43896;48.178;11.578;2023-01-27T09:16:04;95984.81;;;1.41;70.88
58092;BME280;43896;48.178;11.578;2023-01-27T09:18:29;96009.22;;;1.37;71.11
58092;BME280;43896;48.178;11.578;2023-01-27T09:20:55;95918.06;;;0.90;70.78
58092;BME280;43896;48.178;11.578;2023-01-27T09:23:20;96024.16;;;1.61;70.31
58092;BME280;43896;48.178;11.578;2023-01-27T09:25:45;95991.25;;;1.21;71.63
58092;BME280;43896;48.178;11.578;2023-01-27T09:28:11;95968.56;;;1.25;70.02
58092;BME280;43896;48.178;11.578;2023-01-27T09:30:42;95970.69;;;1.18;70.87
58092;BME280;43896;48.178;11.578;2023-01-27T09:33:09;96004.69;;;1.41;70.13
58092;BME280;43896;48.178;11.578;2023-01-27T09:35:39;95975.31;;;1.27;70.10
58092;BME280;43896;48.178;11.578;2023-01-27T09:38:07;95964.34;;;1.09;70.89
58092;BME280;43896;48.178;11.578;2023-01-27T09:40:50;96035.66;;;1.57;69.92
58092;BME280;43896;48.178;11.578;2023-01-27T09:43:44;96024.03;;;1.35;70.36
58092;BME280;43896;48.178;11.578;2023-01-27T09:51:45;96024.34;;;1.58;70.27
58092;BME280;43896;48.178;11.578;2023-01-27T09:56:51;96027.44;;;1.77;69.35
58092;BME280;43896;48.178;11.578;2023-01-27T10:07:48;96020.09;;;1.57;70.32
58092;BME280;43896;48.178;11.578;2023-01-27T10:15:29;96033.09;;;1.69;70.01
58092;BME280;43896;48.178;11.578;2023-01-27T10:26:30;96027.00;;;1.43;69.85
58092;BME280;43896;48.178;11.578;2023-01-27T10:34:30;96029.31;;;1.48;69.82
58092;BME280;43896;48.178;11.578;2023-01-27T10:42:50;96036.75;;;1.53;68.99
58092;BME280;43896;48.178;11.578;2023-01-27T10:47:37;96039.84;;;1.45;70.54
58092;BME280;43896;48.178;11.578;2023-01-27T10:50:16;96012.44;;;1.41;69.87
58092;BME280;43896;48.178;11.578;2023-01-27T10:53:25;96038.91;;;1.73;68.98
58092;BME280;43896;48.178;11.578;2023-01-27T10:56:11;96036.94;;;1.49;69.67
58092;BME280;43896;48.178;11.578;2023-01-27T11:01:31;96034.31;;;1.64;68.74
58092;BME280;43896;48.178;11.578;2023-01-27T11:04:02;96033.69;;;1.87;68.04
58092;BME280;43896;48.178;11.578;2023-01-27T11:06:34;95968.25;;;1.57;67.51
58092;BME280;43896;48.178;11.578;2023-01-27T11:09:09;95993.31;;;1.43;67.85
58092;BME280;43896;48.178;11.578;2023-01-27T11:11:36;96009.31;;;1.63;67.22
58092;BME280;43896;48.178;11.578;2023-01-27T11:14:25;96026.47;;;1.78;68.27
58092;BME280;43896;48.178;11.578;2023-01-27T11:16:55;95999.50;;;1.68;68.34
58092;BME280;43896;48.178;11.578;2023-01-27T11:19:42;96031.09;;;2.00;68.02
58092;BME280;43896;48.178;11.578;2023-01-27T11:30:21;96009.84;;;1.41;68.81
58092;BME280;43896;48.178;11.578;2023-01-27T11:33:15;96010.28;;;1.75;67.18
58092;BME280;43896;48.178;11.578;2023-01-27T11:35:41;96002.28;;;1.65;66.95
58092;BME280;43896;48.178;11.578;2023-01-27T11:38:12;96011.63;;;1.67;67.27
58092;BME280;43896;48.178;11.578;2023-01-27T11:40:38;96024.47;;;1.96;67.08
58092;BME280;43896;48.178;11.578;2023-01-27T11:43:05;95995.50;;;1.90;66.35
58092;BME280;43896;48.178;11.578;2023-01-27T11:45:34;95987.56;;;1.65;66.70
58092;BME280;43896;48.178;11.578;2023-01-27T11:48:01;95973.28;;;1.85;66.27
58092;BME280;43896;48.178;11.578;2023-01-27T11:50:30;95952.81;;;1.55;66.69
58092;BME280;43896;48.178;11.578;2023-01-27T11:53:27;96027.44;;;1.90;67.10
58092;BME280;43896;48.178;11.578;2023-01-27T11:55:57;95984.72;;;1.96;67.26
58092;BME280;43896;48.178;11.578;2023-01-27T11:58:33;96014.63;;;2.01;67.79
58092;BME280;43896;48.178;11.578;2023-01-27T12:01:04;96019.06;;;1.99;67.40
58092;BME280;43896;48.178;11.578;2023-01-27T12:03:56;96009.44;;;2.01;66.35
58092;BME280;43896;48.178;11.578;2023-01-27T12:06:40;96011.19;;;2.01;66.32
58092;BME280;43896;48.178;11.578;2023-01-27T12:09:34;96013.34;;;1.94;67.65
58092;BME280;43896;48.178;11.578;2023-01-27T12:12:26;95946.22;;;1.37;67.13
58092;BME280;43896;48.178;11.578;2023-01-27T12:14:59;95946.78;;;1.55;67.33
58092;BME280;43896;48.178;11.578;2023-01-27T12:17:35;95991.66;;;1.82;67.39
58092;BME280;43896;48.178;11.578;2023-01-27T12:23:00;95944.50;;;2.03;65.84
58092;BME280;43896;48.178;11.578;2023-01-27T12:25:42;95984.22;;;2.16;66.40
58092;BME280;43896;48.178;11.578;2023-01-27T12:28:22;95977.06;;;2.33;65.35
58092;BME280;43896;48.178;11.578;2023-01-27T12:30:49;95997.84;;;2.33;65.45
58092;BME280;43896;48.178;11.578;2023-01-27T12:33:23;95998.34;;;2.25;64.88
58092;BME280;43896;48.178;11.578;2023-01-27T12:35:51;95998.81;;;1.92;66.30
58092;BME280;43896;48.178;11.578;2023-01-27T12:38:22;95990.97;;;2.19;65.41
58092;BME280;43896;48.178;11.578;2023-01-27T12:41:03;95937.94;;;1.84;65.59
58092;BME280;43896;48.178;11.578;2023-01-27T12:43:30;95968.44;;;2.19;65.07
58092;BME280;43896;48.178;11.578;2023-01-27T12:46:25;95921.19;;;1.50;66.96
58092;BME280;43896;48.178;11.578;2023-01-27T12:48:51;95971.63;;;1.84;66.15
58092;BME280;43896;48.178;11.578;2023-01-27T12:51:22;95943.63;;;2.02;65.15
58092;BME280;43896;48.178;11.578;2023-01-27T12:53:48;95955.91;;;2.13;64.41
58092;BME280;43896;48.178;11.578;2023-01-27T12:56:33;95979.78;;;2.18;65.41
58092;BME280;43896;48.178;11.578;2023-01-27T12:58:59;95914.38;;;2.00;64.91
58092;BME280;43896;48.178;11.578;2023-01-27T13:01:32;95988.56;;;2.54;64.76
58092;BME280;43896;48.178;11.578;2023-01-27T13:04:01;95872.75;;;1.89;63.90
58092;BME280;43896;48.178;11.578;2023-01-27T13:06:39;95936.16;;;2.23;64.59
58092;BME280;43896;48.178;11.578;2023-01-27T13:09:35;95992.31;;;2.50;63.98
58092;BME280;43896;48.178;11.578;2023-01-27T13:12:15;95947.69;;;1.94;65.45
58092;BME280;43896;48.178;11.578;2023-01-27T13:14:43;95996.09;;;1.80;66.24
58092;BME280;43896;48.178;11.578;2023-01-27T13:17:29;95981.69;;;1.89;67.06
58092;BME280;43896;48.178;11.578;2023-01-27T13:20:12;95940.41;;;1.86;66.29
58092;BME280;43896;48.178;11.578;2023-01-27T13:22:42;95995.66;;;2.14;65.86
58092;BME280;43896;48.178;11.578;2023-01-27T13:25:16;95891.13;;;1.73;65.39
58092;BME280;43896;48.178;11.578;2023-01-27T13:27:43;95953.09;;;2.16;64.84
58092;BME280;43896;48.178;11.578;2023-01-27T13:30:18;95912.09;;;1.96;64.57
58092;BME280;43896;48.178;11.578;2023-01-27T13:32:47;95906.38;;;1.91;63.74
58092;BME280;43896;48.178;11.578;2023-01-27T13:35:30;95938.66;;;2.12;64.25
58092;BME280;43896;48.178;11.578;2023-01-27T13:38:03;95990.56;;;2.12;64.74
58092;BME280;43896;48.178;11.578;2023-01-27T13:40:36;95921.13;;;1.77;64.28
58092;BME280;43896;48.178;11.578;2023-01-27T13:43:11;95904.38;;;1.56;64.36
58092;BME280;43896;48.178;11.578;2023-01-27T13:45:44;95984.75;;;2.09;63.80
58092;BME280;43896;48.178;11.578;2023-01-27T13:48:18;95924.00;;;1.73;64.34
58092;BME280;43896;48.178;11.578;2023-01-27T13:50:48;95989.94;;;2.34;63.46
58092;BME280;43896;48.178;11.578;2023-01-27T13:53:19;95969.78;;;2.25;63.70
58092;BME280;43896;48.178;11.578;2023-01-27T13:59:15;95921.00;;;1.79;63.38
58092;BME280;43896;48.178;11.578;2023-01-27T14:01:52;96003.91;;;2.06;64.46
58092;BME280;43896;48.178;11.578;2023-01-27T14:10:39;96011.31;;;2.12;65.06
58092;BME280;43896;48.178;11.578;2023-01-27T14:16:08;96004.25;;;2.14;65.50
58092;BME280;43896;48.178;11.578;2023-01-27T14:18:42;95996.50;;;2.27;64.79
58092;BME280;43896;48.178;11.578;2023-01-27T14:21:38;95996.25;;;2.30;64.88
58092;BME280;43896;48.178;11.578;2023-01-27T14:24:16;95992.84;;;2.42;64.22
58092;BME280;43896;48.178;11.578;2023-01-27T14:27:03;95996.78;;;2.22;65.32
58092;BME280;43896;48.178;11.578;2023-01-27T14:29:47;95998.63;;;2.08;65.65
58092;BME280;43896;48.178;11.578;2023-01-27T14:43:05;95977.38;;;2.15;64.58
58092;BME280;43896;48.178;11.578;2023-01-27T14:45:42;95987.34;;;2.21;64.85